createdAt,value
2018-12-24T00:00:38.647Z,98694.80
2018-12-24T00:03:06.710Z,98689.67
2018-12-24T00:05:34.444Z,98692.89
2018-12-24T00:08:02.446Z,98691.51
2018-12-24T00:10:30.698Z,98696.38
2018-12-24T00:12:59.149Z,98694.13
2018-12-24T00:15:27.363Z,98697.27
2018-12-24T00:17:56.237Z,98693.91
2018-12-24T00:20:24.875Z,98703.77
2018-12-24T00:22:53.039Z,98706.80
2018-12-24T00:25:20.899Z,98702.48
2018-12-24T00:27:49.617Z,98699.70
2018-12-24T00:30:17.679Z,98697.55
2018-12-24T00:32:45.710Z,98698.42
2018-12-24T00:35:14.164Z,98703.23
2018-12-24T00:37:42.076Z,98707.55
2018-12-24T00:40:09.959Z,98704.73
2018-12-24T00:42:38.418Z,98702.96
2018-12-24T00:45:06.468Z,98708.33
2018-12-24T00:47:34.388Z,98723.55
2018-12-24T00:50:03.692Z,98720.53
2018-12-24T00:52:31.895Z,98723.95
2018-12-24T00:55:00.303Z,98735.21
2018-12-24T00:57:28.909Z,98751.75
2018-12-24T00:59:56.960Z,98755.94
2018-12-24T01:02:24.847Z,98757.32
2018-12-24T01:04:53.326Z,98763.73
2018-12-24T01:07:21.411Z,98778.44
2018-12-24T01:09:49.481Z,98780.27
2018-12-24T01:12:24.520Z,98786.44
2018-12-24T01:14:46.204Z,98784.13
2018-12-24T01:17:14.210Z,98772.18
2018-12-24T01:19:42.491Z,98772.06
2018-12-24T01:22:10.433Z,98767.83
2018-12-24T01:24:38.379Z,98775.02
2018-12-24T01:27:06.633Z,98747.09
2018-12-24T01:29:34.649Z,98791.22
2018-12-24T01:32:03.355Z,98807.22
2018-12-24T01:34:31.387Z,98802.20
2018-12-24T01:37:00.595Z,98805.88
2018-12-24T01:39:27.664Z,98798.64
2018-12-24T01:41:55.956Z,98668.02
2018-12-24T01:44:24.064Z,98804.51
2018-12-24T01:46:52.051Z,98809.92
2018-12-24T01:49:20.227Z,98815.23
2018-12-24T01:51:48.304Z,98818.03
2018-12-24T01:54:16.752Z,98830.73
2018-12-24T01:56:44.847Z,98823.25
2018-12-24T01:59:12.693Z,98834.33
2018-12-24T02:01:40.811Z,98842.72
2018-12-24T02:04:08.962Z,98839.96
2018-12-24T02:06:36.928Z,98828.83
2018-12-24T02:09:06.878Z,98862.58
2018-12-24T02:11:34.904Z,98864.35
2018-12-24T02:14:02.769Z,98865.84
2018-12-24T02:16:30.655Z,98879.61
2018-12-24T02:18:59.108Z,98867.94
2018-12-24T02:21:26.967Z,98873.19
2018-12-24T02:23:55.162Z,98870.38
2018-12-24T02:26:23.319Z,98847.80
2018-12-24T02:28:51.405Z,98877.20
2018-12-24T02:31:19.276Z,98878.64
2018-12-24T02:33:47.274Z,98885.47
2018-12-24T02:36:15.207Z,98896.20
2018-12-24T02:38:43.872Z,98899.19
2018-12-24T02:41:12.130Z,98900.98
2018-12-24T02:43:40.016Z,98912.67
2018-12-24T02:46:08.439Z,98904.25
2018-12-24T02:48:36.378Z,98918.34
2018-12-24T02:51:04.423Z,98922.16
2018-12-24T02:53:32.851Z,98937.56
2018-12-24T02:56:00.839Z,98937.36
2018-12-24T02:58:29.003Z,98941.05
2018-12-24T03:00:57.268Z,98937.02
2018-12-24T03:03:25.286Z,98940.95
2018-12-24T03:05:53.263Z,98941.59
2018-12-24T03:08:21.671Z,98942.48
2018-12-24T03:10:49.970Z,98940.52
2018-12-24T03:13:17.867Z,98922.75
2018-12-24T03:15:46.385Z,98947.56
2018-12-24T03:18:14.428Z,98950.52
2018-12-24T03:20:42.326Z,98947.28
2018-12-24T03:23:10.784Z,98949.48
2018-12-24T03:25:38.928Z,98951.20
2018-12-24T03:28:06.895Z,98963.20
2018-12-24T03:30:35.400Z,98963.85
2018-12-24T03:33:03.494Z,98962.48
2018-12-24T03:35:31.549Z,98972.12
2018-12-24T03:38:00.045Z,98978.46
2018-12-24T03:40:28.211Z,98977.58
2018-12-24T03:42:56.199Z,98981.86
2018-12-24T03:45:24.764Z,98980.88
2018-12-24T03:47:53.189Z,98985.94
2018-12-24T03:50:21.541Z,98990.91
2018-12-24T03:52:49.606Z,98982.20
2018-12-24T03:55:17.918Z,98952.85
2018-12-24T03:57:45.821Z,99010.34
2018-12-24T04:00:14.662Z,99020.61
2018-12-24T04:02:42.386Z,99022.58
2018-12-24T04:05:10.217Z,99030.16
2018-12-24T04:07:38.266Z,98964.83
2018-12-24T04:10:06.396Z,98991.25
2018-12-24T04:12:34.399Z,99040.64
2018-12-24T04:15:02.714Z,98914.84
2018-12-24T04:17:30.594Z,99054.59
2018-12-24T04:19:58.881Z,99056.33
2018-12-24T04:22:26.739Z,99058.93
2018-12-24T04:24:54.569Z,99058.83
2018-12-24T04:27:22.752Z,99076.63
2018-12-24T04:29:51.362Z,99078.37
2018-12-24T04:32:19.259Z,99083.33
2018-12-24T04:34:47.164Z,99087.46
2018-12-24T04:37:15.289Z,99095.91
2018-12-24T04:39:43.282Z,98850.80
2018-12-24T04:42:11.415Z,99112.59
2018-12-24T04:44:40.232Z,99114.45
2018-12-24T04:47:08.270Z,99093.26
2018-12-24T04:49:36.528Z,99187.13
2018-12-24T04:52:05.570Z,99100.59
2018-12-24T04:54:33.724Z,99159.52
2018-12-24T04:57:03.063Z,99121.08
2018-12-24T04:59:31.443Z,99174.27
2018-12-24T05:01:59.795Z,99188.83
2018-12-24T05:04:28.172Z,99121.23
2018-12-24T05:06:56.516Z,99197.88
2018-12-24T05:09:24.507Z,99203.50
2018-12-24T05:11:52.423Z,99208.56
2018-12-24T05:14:37.364Z,99239.09
2018-12-24T05:17:06.095Z,99226.73
2018-12-24T05:19:36.394Z,99231.02
2018-12-24T05:22:04.348Z,99251.88
2018-12-24T05:24:32.904Z,99248.68
2018-12-24T05:27:01.161Z,99157.95
2018-12-24T05:29:29.192Z,99135.50
2018-12-24T05:31:57.341Z,99272.49
2018-12-24T05:34:25.860Z,99258.08
2018-12-24T05:36:53.944Z,99281.70
2018-12-24T05:39:21.996Z,99286.81
2018-12-24T05:41:50.629Z,99302.87
2018-12-24T05:44:19.729Z,99318.58
2018-12-24T05:46:47.773Z,99304.34
2018-12-24T05:49:15.718Z,99307.02
2018-12-24T05:51:44.082Z,99343.36
2018-12-24T05:54:12.331Z,99350.05
2018-12-24T05:56:40.338Z,99358.05
2018-12-24T05:59:09.111Z,99362.13
2018-12-24T06:01:37.254Z,99281.52
2018-12-24T06:04:05.191Z,99382.28
2018-12-24T06:06:33.627Z,99390.70
2018-12-24T06:09:03.248Z,99404.56
2018-12-24T06:11:31.465Z,99138.13
2018-12-24T06:13:59.613Z,99415.50
2018-12-24T06:16:27.515Z,99425.11
2018-12-24T06:18:55.291Z,99441.42
2018-12-24T06:21:23.413Z,99447.20
2018-12-24T06:23:51.113Z,99470.63
2018-12-24T06:26:19.037Z,99469.60
2018-12-24T06:28:47.674Z,99478.39
2018-12-24T06:31:15.627Z,99485.67
2018-12-24T06:33:43.561Z,99488.55
2018-12-24T06:36:11.629Z,99462.88
2018-12-24T06:38:39.541Z,99274.94
2018-12-24T06:41:07.489Z,99477.45
2018-12-24T06:43:35.503Z,99517.27
2018-12-24T06:46:03.721Z,99533.14
2018-12-24T06:48:31.501Z,99542.75
2018-12-24T06:50:59.702Z,99544.53
2018-12-24T06:53:27.459Z,99552.76
2018-12-24T06:55:55.352Z,99559.22
2018-12-24T06:58:23.543Z,99565.87
2018-12-24T07:00:52.155Z,99569.94
2018-12-24T07:03:20.660Z,99473.82
2018-12-24T07:05:49.061Z,99588.22
2018-12-24T07:08:17.248Z,99598.63
2018-12-24T07:10:45.503Z,99603.16
2018-12-24T07:13:13.723Z,99607.06
2018-12-24T07:15:41.732Z,99616.52
2018-12-24T07:18:09.465Z,99621.84
2018-12-24T07:20:37.734Z,99632.31
2018-12-24T07:23:06.725Z,99638.86
2018-12-24T07:25:34.799Z,99639.59
2018-12-24T07:30:36.586Z,99658.55
2018-12-24T07:33:04.347Z,99661.77
2018-12-24T07:35:32.771Z,99672.22
2018-12-24T07:38:00.658Z,99679.70
2018-12-24T07:40:29.490Z,99680.67
2018-12-24T07:42:57.744Z,99469.90
2018-12-24T07:45:25.972Z,99512.20
2018-12-24T07:47:53.889Z,99696.13
2018-12-24T07:50:22.399Z,99698.50
2018-12-24T07:52:50.327Z,99704.05
2018-12-24T07:55:18.825Z,99707.23
2018-12-24T07:57:47.339Z,99712.48
2018-12-24T08:00:15.052Z,99721.73
2018-12-24T08:02:43.321Z,99728.63
2018-12-24T08:05:11.335Z,99739.27
2018-12-24T08:07:39.281Z,99751.31
2018-12-24T08:10:07.835Z,99585.69
2018-12-24T08:12:37.535Z,99758.38
2018-12-24T08:15:05.579Z,99763.49
2018-12-24T08:17:34.224Z,99762.08
2018-12-24T08:20:03.108Z,99575.92
2018-12-24T08:22:31.183Z,99748.30
2018-12-24T08:24:59.418Z,99774.16
2018-12-24T08:27:27.843Z,99678.46
2018-12-24T08:29:55.762Z,99782.89
2018-12-24T08:32:23.497Z,99791.45
2018-12-24T08:34:52.367Z,99654.33
2018-12-24T08:37:20.642Z,99812.06
2018-12-24T08:39:48.669Z,99821.52
2018-12-24T08:42:18.030Z,99817.39
2018-12-24T08:44:48.159Z,99823.72
2018-12-24T08:47:15.847Z,99827.48
2018-12-24T08:49:44.020Z,99835.40
2018-12-24T08:52:11.828Z,99887.39
2018-12-24T08:54:39.935Z,99846.09
2018-12-24T08:57:08.107Z,99638.94
2018-12-24T08:59:35.855Z,99862.13
2018-12-24T09:02:03.849Z,99879.17
2018-12-24T09:04:32.278Z,99889.69
2018-12-24T09:07:00.496Z,99892.09
2018-12-24T09:09:29.357Z,99905.76
2018-12-24T09:11:58.261Z,99902.45
2018-12-24T09:14:27.008Z,99912.55
2018-12-24T09:16:54.993Z,99916.50
2018-12-24T09:19:23.539Z,99916.50
2018-12-24T09:21:51.610Z,99934.39
2018-12-24T09:24:20.039Z,99945.03
2018-12-24T09:26:48.843Z,99893.63
2018-12-24T09:29:16.890Z,99968.35
2018-12-24T09:31:46.840Z,99963.23
2018-12-24T09:34:14.676Z,99965.98
2018-12-24T09:36:42.471Z,99968.77
2018-12-24T09:39:11.958Z,99974.86
2018-12-24T09:41:40.207Z,99973.66
2018-12-24T09:44:07.929Z,99905.30
2018-12-24T09:46:37.730Z,99988.20
2018-12-24T09:49:05.459Z,99995.30
2018-12-24T09:51:33.570Z,99998.06
2018-12-24T09:54:04.483Z,100002.78
2018-12-24T09:56:33.995Z,100002.63
2018-12-24T09:59:01.845Z,100009.13
2018-12-24T10:01:29.943Z,100003.39
2018-12-24T10:04:03.006Z,100019.05
2018-12-24T10:06:34.364Z,100019.64
2018-12-24T10:09:06.582Z,100018.65
2018-12-24T10:11:38.645Z,100007.17
2018-12-24T10:14:07.095Z,100023.70
2018-12-24T10:16:35.316Z,100023.87
2018-12-24T10:19:03.339Z,100023.63
2018-12-24T10:21:31.543Z,99759.97
2018-12-24T10:23:59.400Z,100022.61
2018-12-24T10:26:27.741Z,100017.86
2018-12-24T10:28:55.567Z,100001.36
2018-12-24T10:31:23.524Z,100026.60
2018-12-24T10:33:51.523Z,99991.23
2018-12-24T10:36:19.493Z,100032.56
2018-12-24T10:38:47.309Z,100039.34
2018-12-24T10:41:20.370Z,99918.53
2018-12-24T10:43:51.418Z,100039.19
2018-12-24T10:46:19.205Z,99965.41
2018-12-24T10:48:47.342Z,100035.12
2018-12-24T10:51:15.607Z,100039.70
2018-12-24T10:53:43.641Z,100025.97
2018-12-24T10:56:12.133Z,100026.06
2018-12-24T10:58:40.139Z,100023.81
2018-12-24T11:01:08.123Z,100031.10
2018-12-24T11:03:37.042Z,100012.42
2018-12-24T11:06:05.199Z,100036.23
2018-12-24T11:08:33.172Z,100029.44
2018-12-24T11:11:02.222Z,100033.23
2018-12-24T11:13:30.376Z,100040.61
2018-12-24T11:15:58.413Z,100041.44
2018-12-24T11:18:26.701Z,99974.27
2018-12-24T11:20:55.684Z,99866.80
2018-12-24T11:23:23.733Z,100047.01
2018-12-24T11:25:52.347Z,100040.95
2018-12-24T11:28:20.287Z,100042.59
2018-12-24T11:30:48.342Z,100055.46
2018-12-24T11:33:17.535Z,100058.84
2018-12-24T11:35:45.371Z,100069.09
2018-12-24T11:38:13.387Z,100059.31
2018-12-24T11:40:41.536Z,100065.65
2018-12-24T11:43:09.255Z,100058.55
2018-12-24T11:45:38.097Z,100062.89
2018-12-24T11:48:06.159Z,100073.00
2018-12-24T11:50:38.353Z,100085.66
2018-12-24T11:53:06.588Z,100095.22
2018-12-24T11:55:34.813Z,100083.65
2018-12-24T11:58:13.446Z,100090.74
2018-12-24T12:00:36.172Z,100084.48
2018-12-24T12:03:04.410Z,99786.62
2018-12-24T12:05:32.192Z,100085.38
2018-12-24T12:08:00.345Z,100093.28
2018-12-24T12:10:28.095Z,100099.19
2018-12-24T12:12:55.884Z,100093.88
2018-12-24T12:15:23.640Z,99928.87
2018-12-24T12:17:52.249Z,100104.38
2018-12-24T12:20:22.850Z,99905.85
2018-12-24T12:22:49.429Z,100116.73
2018-12-24T12:25:17.475Z,100076.19
2018-12-24T12:27:45.360Z,100100.88
2018-12-24T12:30:15.359Z,100082.59
2018-12-24T12:32:44.251Z,100125.25
2018-12-24T12:35:12.080Z,100129.50
2018-12-24T12:37:40.606Z,100107.78
2018-12-24T12:40:09.067Z,100138.13
2018-12-24T12:42:37.581Z,100144.61
2018-12-24T12:45:06.379Z,100139.63
2018-12-24T12:47:34.762Z,100144.84
2018-12-24T12:50:02.695Z,100160.33
2018-12-24T12:52:31.390Z,100156.33
2018-12-24T12:54:59.202Z,100162.93
2018-12-24T12:57:29.138Z,100170.47
2018-12-24T12:59:57.685Z,100157.70
2018-12-24T13:02:25.665Z,100189.76
2018-12-24T13:04:53.763Z,100194.58
2018-12-24T13:07:24.537Z,100202.97
2018-12-24T13:09:53.594Z,100211.08
2018-12-24T13:12:21.808Z,100230.27
2018-12-24T13:14:52.585Z,100213.77
2018-12-24T13:17:23.415Z,100224.63
2018-12-24T13:19:51.591Z,100220.75
2018-12-24T13:22:22.923Z,100222.75
2018-12-24T13:24:52.828Z,100229.89
2018-12-24T13:27:21.681Z,100235.22
2018-12-24T13:29:50.821Z,100234.91
2018-12-24T13:32:19.058Z,100244.34
2018-12-24T13:34:51.274Z,100153.50
2018-12-24T13:37:20.461Z,100140.41
2018-12-24T13:39:48.820Z,100268.61
2018-12-24T13:42:17.474Z,100271.40
2018-12-24T13:44:48.615Z,100277.72
2018-12-24T13:47:17.713Z,100051.02
2018-12-24T13:49:46.638Z,100293.53
2018-12-24T13:52:15.607Z,100278.30
2018-12-24T13:54:43.795Z,100302.02
2018-12-24T13:57:15.679Z,100301.84
2018-12-24T13:59:45.884Z,100309.52
2018-12-24T14:02:16.562Z,100313.84
2018-12-24T14:04:43.615Z,100247.69
2018-12-24T14:07:13.665Z,100259.02
2018-12-24T14:09:42.015Z,100325.45
2018-12-24T14:12:10.062Z,100333.31
2018-12-24T14:14:39.424Z,100282.02
2018-12-24T14:17:10.039Z,100349.20
2018-12-24T14:19:39.463Z,100344.72
2018-12-24T14:22:08.507Z,100354.71
2018-12-24T14:24:39.663Z,100355.52
2018-12-24T14:27:08.817Z,100369.91
2018-12-24T14:29:41.475Z,100345.92
2018-12-24T14:32:10.139Z,100347.92
2018-12-24T14:34:39.962Z,100354.02
2018-12-24T14:37:07.775Z,100354.23
2018-12-24T14:39:37.568Z,100196.77
2018-12-24T14:42:12.654Z,100363.48
2018-12-24T14:44:44.314Z,100368.77
2018-12-24T14:47:13.222Z,100368.81
2018-12-24T14:49:41.551Z,100370.39
2018-12-24T14:52:10.263Z,100376.53
2018-12-24T14:54:43.893Z,100327.42
2018-12-24T14:57:12.049Z,100219.34
2018-12-24T14:59:41.460Z,100381.07
2018-12-24T15:02:10.112Z,100389.73
2018-12-24T15:04:39.178Z,100396.43
2018-12-24T15:07:13.755Z,100403.31
2018-12-24T15:09:42.421Z,100404.29
2018-12-24T15:12:15.447Z,100269.78
2018-12-24T15:14:44.601Z,100414.71
2018-12-24T15:17:12.403Z,100422.96
2018-12-24T15:19:40.439Z,100427.30
2018-12-24T15:22:12.246Z,100437.10
2018-12-24T15:24:41.429Z,100442.60
2018-12-24T15:27:11.294Z,100438.30
2018-12-24T15:29:41.163Z,100391.77
2018-12-24T15:32:08.890Z,100455.36
2018-12-24T15:34:37.200Z,100453.40
2018-12-24T15:37:05.488Z,100452.42
2018-12-24T15:39:33.291Z,100438.69
2018-12-24T15:42:02.214Z,100462.44
2018-12-24T15:44:32.716Z,100465.19
2018-12-24T15:47:03.240Z,100512.48
2018-12-24T15:49:31.910Z,100460.27
2018-12-24T15:52:00.511Z,100470.50
2018-12-24T15:54:30.752Z,100468.52
2018-12-24T15:56:59.155Z,100467.36
2018-12-24T15:59:27.881Z,100466.95
2018-12-24T16:01:56.436Z,100465.57
2018-12-24T16:04:26.330Z,100434.87
2018-12-24T16:06:56.967Z,100303.61
2018-12-24T16:09:24.737Z,100489.31
2018-12-24T16:11:53.925Z,100424.40
2018-12-24T16:14:23.519Z,100501.68
2018-12-24T16:16:51.654Z,100525.03
2018-12-24T16:19:20.285Z,100529.75
2018-12-24T16:21:49.071Z,100540.34
2018-12-24T16:24:17.373Z,100522.03
2018-12-24T16:26:45.591Z,100550.91
2018-12-24T16:29:13.812Z,100559.14
2018-12-24T16:31:41.619Z,100556.78
2018-12-24T16:34:09.312Z,100557.36
2018-12-24T16:36:38.242Z,100562.09
2018-12-24T16:39:06.787Z,100568.16
2018-12-24T16:41:34.801Z,100567.36
2018-12-24T16:44:03.050Z,100571.08
2018-12-24T16:46:32.275Z,100574.62
2018-12-24T16:49:00.031Z,100569.09
2018-12-24T16:51:30.101Z,100339.13
2018-12-24T16:53:58.515Z,100561.02
2018-12-24T16:56:27.146Z,100553.55
2018-12-24T16:58:55.518Z,100261.23
2018-12-24T17:01:23.979Z,100559.02
2018-12-24T17:03:51.762Z,100557.23
2018-12-24T17:06:19.566Z,100555.27
2018-12-24T17:08:48.290Z,100559.20
2018-12-24T17:11:16.858Z,100563.30
2018-12-24T17:13:44.932Z,100625.04
2018-12-24T17:16:14.912Z,100552.69
2018-12-24T17:18:42.909Z,100585.02
2018-12-24T17:21:11.383Z,100317.36
2018-12-24T17:23:40.100Z,100559.73
2018-12-24T17:26:10.228Z,100360.75
2018-12-24T17:28:38.770Z,100567.72
2018-12-24T17:31:06.547Z,100571.64
2018-12-24T17:33:35.420Z,100307.06
2018-12-24T17:36:06.942Z,100278.03
2018-12-24T17:38:34.778Z,100574.55
2018-12-24T17:41:11.945Z,100587.28
2018-12-24T17:43:47.127Z,100314.95
2018-12-24T17:46:16.716Z,100603.10
2018-12-24T17:48:50.272Z,100610.94
2018-12-24T17:51:20.770Z,100253.40
2018-12-24T17:53:49.435Z,100598.55
2018-12-24T17:56:17.271Z,100585.62
2018-12-24T17:58:46.632Z,100592.28
2018-12-24T18:01:14.918Z,100595.22
2018-12-24T18:03:42.698Z,100600.70
2018-12-24T18:24:37.474Z,100617.81
2018-12-24T18:27:05.886Z,100628.69
2018-12-24T18:29:35.422Z,100378.38
2018-12-24T18:32:03.424Z,100630.09
2018-12-24T18:34:31.278Z,100612.45
2018-12-24T18:36:59.352Z,100610.89
2018-12-24T18:39:28.314Z,100597.77
2018-12-24T18:41:56.777Z,100597.21
2018-12-24T18:44:24.653Z,100590.55
2018-12-24T18:47:01.662Z,100601.55
2018-12-24T18:49:31.462Z,100598.05
2018-12-24T18:52:00.687Z,100603.14
2018-12-24T18:54:32.296Z,100616.36
2018-12-24T18:57:03.680Z,100611.00
2018-12-24T18:59:37.656Z,100592.50
2018-12-24T19:02:08.689Z,100609.63
2018-12-24T19:04:41.800Z,100621.39
2018-12-24T19:07:10.108Z,100620.02
2018-12-24T19:09:39.266Z,100612.55
2018-12-24T19:12:14.535Z,100616.89
2018-12-24T19:14:43.009Z,100618.25
2018-12-24T19:17:25.375Z,100596.58
2018-12-24T19:19:56.283Z,100622.91
2018-12-24T19:22:27.036Z,100610.95
2018-12-24T19:24:56.969Z,100604.66
2018-12-24T19:27:30.302Z,100604.88
2018-12-24T19:30:00.648Z,100566.50
2018-12-24T19:32:28.532Z,100617.39
2018-12-24T19:34:59.768Z,100616.22
2018-12-24T19:37:31.463Z,100553.25
2018-12-24T19:40:02.009Z,100609.33
2018-12-24T19:42:33.922Z,100615.19
2018-12-24T19:45:08.562Z,100650.86
2018-12-24T19:47:36.934Z,100599.48
2018-12-24T19:50:07.208Z,100604.36
2018-12-24T19:52:35.381Z,100603.37
2018-12-24T19:55:08.173Z,100610.45
2018-12-24T19:57:36.409Z,100583.74
2018-12-24T20:00:06.860Z,100609.09
2018-12-24T20:02:34.864Z,100605.37
2018-12-24T20:05:05.311Z,100608.52
2018-12-24T20:07:36.572Z,100553.25
2018-12-24T20:10:07.887Z,100566.81
2018-12-24T20:12:38.625Z,100610.72
2018-12-24T20:15:11.473Z,100618.55
2018-12-24T20:17:41.792Z,100559.34
2018-12-24T20:20:12.638Z,100596.83
2018-12-24T20:22:41.174Z,100625.31
2018-12-24T20:25:09.529Z,100620.60
2018-12-24T20:27:39.241Z,100631.78
2018-12-24T20:30:08.122Z,100647.75
2018-12-24T20:32:41.548Z,100579.45
2018-12-24T20:35:09.961Z,100652.47
2018-12-24T20:37:38.682Z,100648.21
2018-12-24T20:40:08.023Z,100642.78
2018-12-24T20:42:38.861Z,100663.47
2018-12-24T20:45:08.347Z,100617.23
2018-12-24T20:47:37.253Z,100648.11
2018-12-24T20:50:09.625Z,100627.04
2018-12-24T20:52:40.100Z,100498.23
2018-12-24T20:55:09.207Z,100675.88
2018-12-24T20:57:39.550Z,100678.22
2018-12-24T21:00:08.821Z,100681.55
2018-12-24T21:02:39.990Z,100686.28
2018-12-24T21:05:09.281Z,100685.48
2018-12-24T21:07:38.931Z,100689.21
2018-12-24T21:10:07.326Z,100668.53
2018-12-24T21:12:38.949Z,100692.77
2018-12-24T21:15:09.122Z,100700.61
2018-12-24T21:17:41.293Z,100626.73
2018-12-24T21:20:11.297Z,100699.27
2018-12-24T21:22:39.403Z,100704.77
2018-12-24T21:25:16.359Z,100711.61
2018-12-24T21:27:46.682Z,100713.81
2018-12-24T21:30:19.100Z,100714.80
2018-12-24T21:32:50.446Z,100705.02
2018-12-24T21:35:19.751Z,100671.25
2018-12-24T21:37:52.285Z,100707.56
2018-12-24T21:40:22.223Z,100710.31
2018-12-24T21:42:58.235Z,100709.92
2018-12-24T21:45:27.014Z,100695.74
2018-12-24T21:47:54.935Z,100704.27
2018-12-24T21:50:23.581Z,100708.39
2018-12-24T21:52:51.819Z,100711.91
2018-12-24T21:55:23.994Z,100708.80
2018-12-24T21:57:52.680Z,100706.81
2018-12-24T22:00:25.117Z,100705.26
2018-12-24T22:02:53.028Z,100712.73
2018-12-24T22:05:22.596Z,100695.01
2018-12-24T22:07:50.526Z,100539.88
2018-12-24T22:10:19.467Z,100671.97
2018-12-24T22:12:48.092Z,100710.17
2018-12-24T22:15:17.223Z,100678.74
2018-12-24T22:17:46.231Z,100707.42
2018-12-24T22:20:13.991Z,100710.18
2018-12-24T22:22:43.903Z,100707.66
2018-12-24T22:25:12.640Z,100708.66
2018-12-24T22:27:41.204Z,100715.53
2018-12-24T22:30:12.112Z,100714.75
2018-12-24T22:32:43.969Z,100716.70
2018-12-24T22:35:15.951Z,100720.27
2018-12-24T22:37:50.338Z,100699.84
2018-12-24T22:40:21.148Z,100703.97
2018-12-24T22:42:49.536Z,100694.97
2018-12-24T22:45:19.850Z,100695.34
2018-12-24T22:47:48.562Z,100694.97
2018-12-24T22:50:17.263Z,100685.94
2018-12-24T22:52:45.214Z,100691.63
2018-12-24T22:55:14.657Z,100685.72
2018-12-24T22:57:44.497Z,100685.08
2018-12-24T23:00:14.664Z,100678.05
2018-12-24T23:02:46.253Z,100680.40
2018-12-24T23:05:15.677Z,100620.37
2018-12-24T23:07:47.740Z,100665.86
2018-12-24T23:10:18.456Z,100629.44
2018-12-24T23:12:46.152Z,100659.55
2018-12-24T23:15:15.763Z,100663.84
2018-12-24T23:17:45.035Z,100658.56
2018-12-24T23:20:12.939Z,100658.94
2018-12-24T23:22:41.580Z,100656.36
2018-12-24T23:25:11.852Z,100659.47
2018-12-24T23:27:40.088Z,100658.69
2018-12-24T23:30:10.051Z,100661.42
2018-12-24T23:35:12.690Z,100673.94
2018-12-24T23:37:41.522Z,100681.41
2018-12-24T23:40:10.092Z,100680.02
2018-12-24T23:42:38.568Z,100688.05
2018-12-24T23:45:09.770Z,100684.52
2018-12-24T23:47:38.855Z,100602.28
2018-12-24T23:50:07.117Z,100684.36
2018-12-24T23:52:35.089Z,100530.68
2018-12-24T23:55:04.163Z,100665.74
2018-12-24T23:57:35.075Z,100665.73
